createdAt,value
2022-08-07T00:00:05.701Z,49.29
2022-08-07T00:01:12.662Z,49.19
2022-08-07T00:02:41.084Z,49.15
2022-08-07T00:03:10.895Z,49.31
2022-08-07T00:04:15.729Z,49.37
2022-08-07T00:05:14.533Z,49.19
2022-08-07T00:06:16.158Z,49.25
2022-08-07T00:07:17.823Z,49.47
2022-08-07T00:08:19.561Z,49.42
2022-08-07T00:09:22.439Z,49.39
2022-08-07T00:10:27.383Z,49.48
2022-08-07T00:11:32.999Z,49.61
2022-08-07T00:12:26.610Z,49.44
2022-08-07T00:13:28.460Z,49.54
2022-08-07T00:14:30.938Z,49.44
2022-08-07T00:15:38.123Z,49.46
2022-08-07T00:16:33.580Z,49.75
2022-08-07T00:17:35.874Z,49.83
2022-08-07T00:18:36.902Z,49.68
2022-08-07T00:20:01.198Z,49.6
2022-08-07T00:20:40.530Z,49.82
2022-08-07T00:21:57.386Z,49.97
2022-08-07T00:22:43.984Z,49.87
2022-08-07T00:23:45.604Z,49.83
2022-08-07T00:24:47.317Z,49.83
2022-08-07T00:25:58.852Z,50
2022-08-07T00:27:06.380Z,50.26
2022-08-07T00:27:56.520Z,50.06
2022-08-07T00:28:55.704Z,50.21
2022-08-07T00:29:56.155Z,50.09
2022-08-07T00:30:57.814Z,50.21
2022-08-07T00:31:59.456Z,50.1
2022-08-07T00:33:02.263Z,50.04
2022-08-07T00:34:03.070Z,49.96
2022-08-07T00:35:04.667Z,50.14
2022-08-07T00:36:06.423Z,50.37
2022-08-07T00:37:08.150Z,50.02
2022-08-07T00:38:09.888Z,50.17
2022-08-07T00:39:16.111Z,50.31
2022-08-07T00:40:14.052Z,50.34
2022-08-07T00:41:15.371Z,50.31
2022-08-07T00:42:16.817Z,50.46
2022-08-07T00:43:59.605Z,50.57
2022-08-07T00:44:20.407Z,50.34
2022-08-07T00:45:22.082Z,50.34
2022-08-07T00:46:23.906Z,50.47
2022-08-07T00:48:07.822Z,50.41
2022-08-07T00:48:31.897Z,50.48
2022-08-07T00:50:20.041Z,50.49
2022-08-07T00:50:46.122Z,50.49
2022-08-07T00:51:58.190Z,50.52
2022-08-07T00:52:34.162Z,50.54
2022-08-07T00:53:38.970Z,50.68
2022-08-07T00:54:37.628Z,50.78
2022-08-07T00:56:02.613Z,50.77
2022-08-07T00:56:41.087Z,50.88
2022-08-07T00:57:55.419Z,50.85
2022-08-07T00:58:47.066Z,51.14
2022-08-07T00:59:46.141Z,50.78
2022-08-07T01:00:53.514Z,50.7
2022-08-07T01:01:49.681Z,50.85
2022-08-07T01:02:51.358Z,50.89
2022-08-07T01:03:57.020Z,50.85
2022-08-07T01:04:58.383Z,50.74
2022-08-07T01:05:56.699Z,50.82
2022-08-07T01:06:58.421Z,51.24
2022-08-07T01:08:00.335Z,51.31
2022-08-07T01:09:02.807Z,51.22
2022-08-07T01:10:05.910Z,51.2
2022-08-07T01:12:05.030Z,51.1
2022-08-07T01:12:29.140Z,51.37
2022-08-07T01:13:08.688Z,51.18
2022-08-07T01:14:10.502Z,51.12
2022-08-07T01:15:17.630Z,51.26
2022-08-07T01:16:13.901Z,51.31
2022-08-07T01:17:15.667Z,51.1
2022-08-07T01:18:17.867Z,51.4
2022-08-07T01:19:19.803Z,51.46
2022-08-07T01:20:20.840Z,51.58
2022-08-07T01:21:26.105Z,51.48
2022-08-07T01:22:29.336Z,51.61
2022-08-07T01:23:36.773Z,51.74
2022-08-07T01:24:27.836Z,51.66
2022-08-07T01:25:54.078Z,51.82
2022-08-07T01:26:31.404Z,51.86
2022-08-07T01:27:33.050Z,52.01
2022-08-07T01:28:34.779Z,51.86
2022-08-07T01:29:36.504Z,51.98
2022-08-07T01:30:38.253Z,52.03
2022-08-07T01:31:42.514Z,51.82
2022-08-07T01:32:41.661Z,52.01
2022-08-07T01:33:56.442Z,52.02
2022-08-07T01:34:47.356Z,51.92
2022-08-07T01:35:54.260Z,51.88
2022-08-07T01:36:52.586Z,52.14
2022-08-07T01:37:50.456Z,52.19
2022-08-07T01:38:52.097Z,52.05
2022-08-07T01:39:53.967Z,51.97
2022-08-07T01:40:55.675Z,52.08
2022-08-07T01:42:37.675Z,51.93
2022-08-07T01:42:59.317Z,52.1
2022-08-07T01:44:01.626Z,52.11
2022-08-07T01:45:02.452Z,51.97
2022-08-07T01:46:08.091Z,52.13
2022-08-07T01:47:14.466Z,51.89
2022-08-07T01:48:19.248Z,52.07
2022-08-07T01:49:09.534Z,51.91
2022-08-07T01:50:11.194Z,51.9
2022-08-07T01:52:01.088Z,52.05
2022-08-07T01:52:15.414Z,52.12
2022-08-07T01:53:21.751Z,51.95
2022-08-07T01:54:37.020Z,52.07
2022-08-07T01:55:22.573Z,52.21
2022-08-07T01:56:21.672Z,52
2022-08-07T01:57:24.960Z,51.97
2022-08-07T01:58:29.513Z,51.97
2022-08-07T01:59:30.909Z,52.28
2022-08-07T02:00:29.194Z,51.89
2022-08-07T02:02:02.227Z,52
2022-08-07T02:02:32.539Z,52.05
2022-08-07T02:03:42.797Z,51.88
2022-08-07T02:04:35.443Z,52.02
2022-08-07T02:05:48.380Z,52.1
2022-08-07T02:06:38.913Z,52.07
2022-08-07T02:07:50.184Z,51.9
2022-08-07T02:08:42.668Z,51.88
2022-08-07T02:09:53.194Z,51.94
2022-08-07T02:10:54.901Z,52.02
2022-08-07T02:12:03.038Z,51.9
2022-08-07T02:12:50.161Z,51.98
2022-08-07T02:13:57.824Z,52
2022-08-07T02:14:52.816Z,51.86
2022-08-07T02:15:54.556Z,52.1
2022-08-07T02:16:56.371Z,51.82
2022-08-07T02:17:58.186Z,52.07
2022-08-07T02:18:59.843Z,51.89
2022-08-07T02:20:04.660Z,51.87
2022-08-07T02:21:06.920Z,51.81
2022-08-07T02:22:07.870Z,51.97
2022-08-07T02:23:06.643Z,52.01
2022-08-07T02:24:08.492Z,51.99
2022-08-07T02:25:17.345Z,51.82
2022-08-07T02:26:33.121Z,51.95
2022-08-07T02:27:13.596Z,51.97
2022-08-07T02:28:15.449Z,52.16
2022-08-07T02:29:17.056Z,52.1
2022-08-07T02:30:18.795Z,52.03
2022-08-07T02:31:29.214Z,52.09
2022-08-07T02:32:23.344Z,52.01
2022-08-07T02:33:24.337Z,52
2022-08-07T02:34:25.743Z,52.09
2022-08-07T02:36:30.257Z,52.18
2022-08-07T02:36:32.909Z,52.13
2022-08-07T02:37:34.060Z,52.21
2022-08-07T02:38:32.678Z,51.98
2022-08-07T02:39:43.204Z,52.16
2022-08-07T02:40:36.571Z,52.42
2022-08-07T02:41:38.285Z,52.27
2022-08-07T02:42:39.613Z,52.49
2022-08-07T02:43:41.391Z,52.34
2022-08-07T02:44:48.405Z,52.64
2022-08-07T02:46:00.814Z,52.63
2022-08-07T02:46:52.522Z,52.63
2022-08-07T02:47:49.142Z,52.74
2022-08-07T02:48:54.941Z,52.46
2022-08-07T02:49:59.060Z,52.55
2022-08-07T02:50:53.806Z,52.65
2022-08-07T02:51:55.220Z,52.67
2022-08-07T02:53:00.840Z,52.76
2022-08-07T02:53:58.693Z,52.76
2022-08-07T02:55:00.411Z,52.74
2022-08-07T02:56:05.765Z,52.97
2022-08-07T02:57:03.869Z,53.18
2022-08-07T02:58:05.758Z,53.24
2022-08-07T02:59:07.482Z,53.05
2022-08-07T03:00:11.061Z,53.02
2022-08-07T03:01:18.809Z,53.24
2022-08-07T03:02:12.616Z,53.49
2022-08-07T03:03:14.280Z,53.38
2022-08-07T03:04:16.024Z,53.24
2022-08-07T03:05:20.577Z,53.24
2022-08-07T03:06:25.606Z,53.37
2022-08-07T03:07:21.491Z,53.67
2022-08-07T03:08:26.985Z,53.52
2022-08-07T03:09:43.757Z,53.8
2022-08-07T03:10:26.545Z,53.58
2022-08-07T03:11:28.410Z,53.55
2022-08-07T03:12:30.913Z,53.58
2022-08-07T03:13:38.846Z,53.66
2022-08-07T03:14:33.361Z,53.79
2022-08-07T03:15:55.690Z,53.77
2022-08-07T03:16:36.947Z,53.55
2022-08-07T03:17:53.621Z,53.73
2022-08-07T03:18:40.359Z,53.78
2022-08-07T03:19:42.150Z,53.88
2022-08-07T03:20:43.816Z,53.87
2022-08-07T03:21:50.826Z,53.94
2022-08-07T03:22:50.386Z,54.04
2022-08-07T03:24:20.558Z,54.23
2022-08-07T03:24:50.711Z,54.26
2022-08-07T03:25:58.187Z,54.32
2022-08-07T03:26:58.893Z,54.33
2022-08-07T03:27:59.117Z,54.39
2022-08-07T03:28:57.639Z,54.54
2022-08-07T03:29:59.359Z,54.37
2022-08-07T03:31:01.255Z,54.67
2022-08-07T03:32:02.850Z,54.54
2022-08-07T03:33:04.637Z,54.7
2022-08-07T03:34:06.442Z,54.79
2022-08-07T03:35:17.484Z,54.72
2022-08-07T03:36:09.773Z,54.73
2022-08-07T03:37:12.415Z,54.69
2022-08-07T03:38:13.505Z,55
2022-08-07T03:39:15.202Z,54.71
2022-08-07T03:40:17.141Z,54.86
2022-08-07T03:41:18.517Z,55.13
2022-08-07T03:42:20.187Z,55.04
2022-08-07T03:43:22.048Z,55.01
2022-08-07T03:44:34.297Z,55.04
2022-08-07T03:45:30.689Z,54.96
2022-08-07T03:46:27.247Z,55.18
2022-08-07T03:47:29.608Z,55.02
2022-08-07T03:48:30.580Z,55.29
2022-08-07T03:49:32.384Z,55.07
2022-08-07T03:50:34.051Z,55.5
2022-08-07T03:51:47.253Z,55.52
2022-08-07T03:52:37.653Z,55.69
2022-08-07T03:54:33.182Z,55.45
2022-08-07T03:54:54.088Z,55.6
2022-08-07T03:55:57.709Z,55.61
2022-08-07T03:57:03.478Z,55.76
2022-08-07T03:58:08.905Z,55.67
2022-08-07T03:59:07.114Z,55.69
2022-08-07T04:00:02.777Z,55.87
2022-08-07T04:00:53.330Z,55.62
2022-08-07T04:01:53.298Z,55.83
2022-08-07T04:02:56.909Z,55.81
2022-08-07T04:03:56.594Z,55.78
2022-08-07T04:04:58.412Z,55.94
2022-08-07T04:06:00.078Z,55.77
2022-08-07T04:07:01.799Z,56.14
2022-08-07T04:08:03.533Z,56.03
2022-08-07T04:09:05.267Z,55.96
2022-08-07T04:10:07.138Z,56.11
2022-08-07T04:12:20.847Z,56.25
2022-08-07T04:12:25.369Z,56.1
2022-08-07T04:13:15.336Z,55.99
2022-08-07T04:14:37.850Z,56.07
2022-08-07T04:15:15.677Z,56.26
2022-08-07T04:16:30.121Z,56.37
2022-08-07T04:17:20.780Z,56.39
2022-08-07T04:18:56.509Z,56.23
2022-08-07T04:19:22.679Z,56.37
2022-08-07T04:20:24.480Z,56.62
2022-08-07T04:21:26.144Z,56.53
2022-08-07T04:22:29.556Z,56.43
2022-08-07T04:23:43.399Z,56.34
2022-08-07T04:24:33.992Z,56.47
2022-08-07T04:25:35.832Z,56.65
2022-08-07T04:26:34.764Z,56.62
2022-08-07T04:27:43.920Z,56.67
2022-08-07T04:28:38.407Z,56.63
2022-08-07T04:29:45.689Z,56.58
2022-08-07T04:30:55.396Z,56.6
2022-08-07T04:32:03.427Z,56.63
2022-08-07T04:32:47.876Z,56.8
2022-08-07T04:33:46.909Z,56.77
2022-08-07T04:34:48.694Z,56.99
2022-08-07T04:35:51.246Z,56.72
2022-08-07T04:36:52.230Z,56.67
2022-08-07T04:38:06.530Z,56.64
2022-08-07T04:38:55.697Z,56.6
2022-08-07T04:39:57.418Z,56.71
2022-08-07T04:40:59.164Z,56.43
2022-08-07T04:42:00.839Z,56.59
2022-08-07T04:43:03.342Z,56.5
2022-08-07T04:44:13.147Z,56.47
2022-08-07T04:45:08.154Z,56.47
2022-08-07T04:46:07.709Z,56.45
2022-08-07T04:47:09.528Z,56.35
2022-08-07T04:48:11.559Z,56.46
2022-08-07T04:49:18.036Z,56.24
2022-08-07T04:50:14.775Z,56.58
2022-08-07T04:51:16.376Z,56.46
2022-08-07T04:52:18.371Z,56.21
2022-08-07T04:53:40.003Z,56.41
2022-08-07T04:54:22.865Z,56.11
2022-08-07T04:58:09.902Z,56.06
2022-08-07T04:58:14.158Z,56.22
2022-08-07T04:58:16.147Z,56.38
2022-08-07T04:58:47.482Z,56.06
2022-08-07T05:00:14.527Z,56.09
2022-08-07T05:00:32.526Z,56.19
2022-08-07T05:01:33.791Z,56.06
2022-08-07T05:02:35.549Z,55.98
2022-08-07T05:04:06.355Z,55.99
2022-08-07T05:04:44.017Z,55.96
2022-08-07T05:05:53.056Z,55.93
2022-08-07T05:06:43.667Z,56
2022-08-07T05:07:48.526Z,56.01
2022-08-07T05:09:00.672Z,56.02
2022-08-07T05:09:47.653Z,56.11
2022-08-07T05:10:49.331Z,56.03
2022-08-07T05:11:58.871Z,56.12
2022-08-07T05:12:54.481Z,56.02
2022-08-07T05:14:56.173Z,55.88
2022-08-07T05:15:03.188Z,56.23
2022-08-07T05:15:58.131Z,56.09
2022-08-07T05:16:59.872Z,56
2022-08-07T05:18:01.785Z,55.96
2022-08-07T05:19:03.205Z,56.11
2022-08-07T05:20:09.616Z,55.89
2022-08-07T05:21:06.686Z,55.75
2022-08-07T05:22:08.468Z,55.78
2022-08-07T05:23:15.959Z,55.66
2022-08-07T05:24:11.874Z,55.62
2022-08-07T05:25:25.246Z,55.71
2022-08-07T05:26:23.662Z,55.6
2022-08-07T05:28:03.357Z,55.54
2022-08-07T05:28:22.553Z,55.53
2022-08-07T05:29:20.557Z,55.63
2022-08-07T05:30:30.206Z,55.6
2022-08-07T05:31:24.023Z,55.31
2022-08-07T05:32:25.828Z,55.12
2022-08-07T05:33:27.642Z,55.21
2022-08-07T05:34:29.297Z,55.16
2022-08-07T05:35:33.583Z,55.16
2022-08-07T05:36:35.738Z,55.02
2022-08-07T05:37:37.776Z,54.84
2022-08-07T05:38:58.355Z,54.91
2022-08-07T05:40:16.622Z,54.71
2022-08-07T05:40:50.665Z,54.83
2022-08-07T05:42:02.583Z,54.31
2022-08-07T05:42:43.106Z,53.96
2022-08-07T05:44:01.246Z,54.07
2022-08-07T05:45:04.494Z,53.92
2022-08-07T05:45:48.604Z,54
2022-08-07T05:46:51.337Z,53.61
2022-08-07T05:48:01.065Z,53.53
2022-08-07T05:48:59.290Z,53.65
2022-08-07T05:49:55.383Z,53.45
2022-08-07T05:50:57.049Z,53.18
2022-08-07T05:51:58.862Z,53.14
2022-08-07T05:53:00.618Z,52.69
2022-08-07T05:54:09.580Z,52.85
2022-08-07T05:55:10.341Z,53.01
2022-08-07T05:56:12.419Z,52.69
2022-08-07T05:57:07.509Z,52.51
2022-08-07T05:58:09.177Z,52.33
2022-08-07T05:59:10.981Z,52.29
2022-08-07T06:00:16.430Z,52.07
2022-08-07T06:01:14.343Z,51.39
2022-08-07T06:02:21.529Z,51.29
2022-08-07T06:03:17.792Z,51.44
2022-08-07T06:04:19.582Z,51.41
2022-08-07T06:05:28.135Z,51.33
2022-08-07T06:06:23.010Z,51.11
2022-08-07T06:08:14.756Z,51.04
2022-08-07T06:08:31.280Z,50.76
2022-08-07T06:10:04.421Z,51.08
2022-08-07T06:10:30.074Z,50.9
2022-08-07T06:11:31.670Z,50.83
2022-08-07T06:12:33.396Z,50.34
2022-08-07T06:14:13.593Z,49.99
2022-08-07T06:14:36.864Z,49.54
2022-08-07T06:15:42.124Z,50.02
2022-08-07T06:16:40.359Z,50.24
2022-08-07T06:17:42.066Z,50.2
2022-08-07T06:18:51.466Z,49.82
2022-08-07T06:19:57.590Z,49.79
2022-08-07T06:20:50.879Z,49.74
2022-08-07T06:22:14.277Z,49.54
2022-08-07T06:23:02.336Z,49.35
2022-08-07T06:24:45.436Z,49.07
2022-08-07T06:24:58.471Z,49.23
2022-08-07T06:25:57.105Z,49.26
2022-08-07T06:26:57.759Z,49.44
2022-08-07T06:28:01.236Z,48.59
2022-08-07T06:29:01.576Z,48.01
2022-08-07T06:30:03.045Z,47.86
2022-08-07T06:31:07.670Z,47.46
2022-08-07T06:32:06.361Z,47.76
2022-08-07T06:33:09.710Z,48.13
2022-08-07T06:34:09.847Z,47.62
2022-08-07T06:35:17.693Z,46.82
2022-08-07T06:36:14.189Z,46.84
2022-08-07T06:37:17.052Z,46.51
2022-08-07T06:38:20.123Z,46.66
2022-08-07T06:40:15.722Z,46.73
2022-08-07T06:40:21.229Z,46.95
2022-08-07T06:42:00.828Z,46.45
2022-08-07T06:42:33.192Z,46.44
2022-08-07T06:43:25.571Z,45.65
2022-08-07T06:44:27.277Z,45.41
2022-08-07T06:45:28.960Z,45.33
2022-08-07T06:46:31.282Z,45.19
2022-08-07T06:47:47.862Z,44.27
2022-08-07T06:48:34.205Z,44.32
2022-08-07T06:49:35.852Z,43.94
2022-08-07T06:50:37.619Z,44.33
2022-08-07T06:51:43.435Z,45
2022-08-07T06:52:41.051Z,44.21
2022-08-07T06:55:30.202Z,44.38
2022-08-07T06:55:33.271Z,43.99
2022-08-07T06:55:53.691Z,44.07
2022-08-07T06:56:49.683Z,44.23
2022-08-07T06:57:50.973Z,44.1
2022-08-07T07:00:11.857Z,43.36
2022-08-07T07:00:12.820Z,43.57
2022-08-07T07:00:54.950Z,43.95
2022-08-07T07:01:57.009Z,43.64
2022-08-07T07:03:01.275Z,43.9
2022-08-07T07:04:08.301Z,42.93
2022-08-07T07:05:02.002Z,42.79
2022-08-07T07:06:06.252Z,42.89
2022-08-07T07:07:10.351Z,42.7
2022-08-07T07:08:10.056Z,43.1
2022-08-07T07:09:08.798Z,42.62
2022-08-07T07:10:10.526Z,42.78
2022-08-07T07:11:13.052Z,42.38
2022-08-07T07:12:18.083Z,42.08
2022-08-07T07:13:15.733Z,43.02
2022-08-07T07:14:17.680Z,42.64
2022-08-07T07:15:23.590Z,42.08
2022-08-07T07:16:20.935Z,41.01
2022-08-07T07:17:22.661Z,41.71
2022-08-07T07:18:48.089Z,41.98
2022-08-07T07:19:56.023Z,42.07
2022-08-07T07:20:27.918Z,41.35
2022-08-07T07:22:04.219Z,41.82
2022-08-07T07:22:36.908Z,41.23
2022-08-07T07:24:08.348Z,41.46
2022-08-07T07:24:34.906Z,41.51
2022-08-07T07:26:34.001Z,41.72
2022-08-07T07:26:38.282Z,41.45
2022-08-07T07:27:58.507Z,41.43
2022-08-07T07:28:48.549Z,40.72
2022-08-07T07:30:07.541Z,41.4
2022-08-07T07:30:45.500Z,40.92
2022-08-07T07:31:47.118Z,41.62
2022-08-07T07:32:48.746Z,41.39
2022-08-07T07:33:56.428Z,40.98
2022-08-07T07:34:52.171Z,41
2022-08-07T07:36:05.475Z,40.47
2022-08-07T07:36:55.687Z,40.54
2022-08-07T07:38:02.107Z,40.81
2022-08-07T07:38:59.365Z,41.72
2022-08-07T07:40:01.016Z,41.73
2022-08-07T07:41:02.814Z,41.54
2022-08-07T07:42:13.668Z,41.29
2022-08-07T07:43:15.012Z,41.21
2022-08-07T07:44:17.698Z,41.52
2022-08-07T07:45:09.495Z,40.33
2022-08-07T07:46:37.587Z,41.07
2022-08-07T07:47:22.727Z,40.52
2022-08-07T07:48:34.871Z,40.61
2022-08-07T07:50:32.676Z,40.65
2022-08-07T07:50:36.534Z,40.85
2022-08-07T07:51:19.950Z,41.33
2022-08-07T07:52:21.734Z,41.44
2022-08-07T07:53:25.592Z,40.71
2022-08-07T07:54:25.120Z,40.36
2022-08-07T07:55:26.981Z,40.9
2022-08-07T07:56:30.382Z,40.64
2022-08-07T07:57:51.742Z,40.85
2022-08-07T07:58:36.869Z,41.16
2022-08-07T07:59:51.588Z,41.3
2022-08-07T08:00:35.804Z,41.66
2022-08-07T08:02:03.650Z,41.27
2022-08-07T08:02:39.040Z,40.58
2022-08-07T08:04:09.697Z,40.9
2022-08-07T08:04:42.533Z,41.06
2022-08-07T08:05:55.156Z,40.5
2022-08-07T08:06:50.754Z,40.01
2022-08-07T08:07:59.683Z,41
2022-08-07T08:08:49.558Z,40.47
2022-08-07T08:09:52.166Z,40.43
2022-08-07T08:10:53.002Z,40.88
2022-08-07T08:12:01.981Z,39.58
2022-08-07T08:12:59.688Z,40.15
2022-08-07T08:13:58.193Z,39.89
2022-08-07T08:14:59.921Z,40.39
2022-08-07T08:16:01.547Z,40.48
2022-08-07T08:17:56.264Z,39.98
2022-08-07T08:18:36.587Z,40.22
2022-08-07T08:19:09.806Z,39
2022-08-07T08:20:19.316Z,39.3
2022-08-07T08:21:10.200Z,39.54
2022-08-07T08:22:12.000Z,40.07
2022-08-07T08:23:14.237Z,39.79
2022-08-07T08:24:34.301Z,39.73
2022-08-07T08:25:25.165Z,39.62
2022-08-07T08:26:18.873Z,39.95
2022-08-07T08:27:20.718Z,40.11
2022-08-07T08:28:23.958Z,40.04
2022-08-07T08:29:24.215Z,39.03
2022-08-07T08:30:25.822Z,39.63
2022-08-07T08:31:30.246Z,40.14
2022-08-07T08:32:39.496Z,40.01
2022-08-07T08:33:33.235Z,40.76
2022-08-07T08:34:32.807Z,40.06
2022-08-07T08:35:43.135Z,39.89
2022-08-07T08:36:36.350Z,39.75
2022-08-07T08:37:59.418Z,39.42
2022-08-07T08:38:40.668Z,39.72
2022-08-07T08:39:54.854Z,39.73
2022-08-07T08:40:43.885Z,39.52
2022-08-07T08:41:57.383Z,40.01
2022-08-07T08:42:46.696Z,39.4
2022-08-07T08:43:56.280Z,39.99
2022-08-07T08:44:50.125Z,40.82
2022-08-07T08:45:59.219Z,40.44
2022-08-07T08:46:53.773Z,40.72
2022-08-07T08:47:55.435Z,41.34
2022-08-07T08:48:57.233Z,41.05
2022-08-07T08:50:04.875Z,41.31
2022-08-07T08:51:03.482Z,40.91
2022-08-07T08:52:13.968Z,40.97
2022-08-07T08:53:04.033Z,40.97
2022-08-07T08:54:05.722Z,40.5
2022-08-07T08:55:07.793Z,40.85
2022-08-07T08:56:09.245Z,40.35
2022-08-07T08:57:10.908Z,39.94
2022-08-07T08:58:13.243Z,39.68
2022-08-07T08:59:16.468Z,39.56
2022-08-07T09:00:16.122Z,40.05
2022-08-07T09:01:19.240Z,40.4
2022-08-07T09:02:35.134Z,40.04
2022-08-07T09:03:21.363Z,40.42
2022-08-07T09:04:25.988Z,40.39
2022-08-07T09:05:36.745Z,40.81
2022-08-07T09:06:26.678Z,40.6
2022-08-07T09:07:28.768Z,41.26
2022-08-07T09:08:30.159Z,40.76
2022-08-07T09:09:36.538Z,40.84
2022-08-07T09:10:33.456Z,41.3
2022-08-07T09:11:50.462Z,40.6
2022-08-07T09:12:36.928Z,41.04
2022-08-07T09:13:38.799Z,40.87
2022-08-07T09:14:40.458Z,40.21
2022-08-07T09:16:23.409Z,39.75
2022-08-07T09:16:44.016Z,40.74
2022-08-07T09:17:59.690Z,41
2022-08-07T09:18:52.934Z,40.13
2022-08-07T09:19:53.760Z,40.23
2022-08-07T09:21:00.123Z,40.63
2022-08-07T09:22:09.992Z,40.4
2022-08-07T09:24:32.666Z,40.54
2022-08-07T09:24:53.802Z,40.22
2022-08-07T09:25:01.533Z,40.74
2022-08-07T09:25:59.543Z,40.71
2022-08-07T09:27:04.602Z,41.37
2022-08-07T09:28:03.525Z,40.6
2022-08-07T09:30:01.487Z,39.89
2022-08-07T09:30:08.294Z,39.99
2022-08-07T09:31:08.577Z,40.31
2022-08-07T09:32:17.096Z,40.94
2022-08-07T09:33:24.267Z,40.91
2022-08-07T09:34:13.348Z,40.07
2022-08-07T09:36:02.926Z,40.41
2022-08-07T09:36:16.823Z,39.94
2022-08-07T09:37:18.672Z,40.41
2022-08-07T09:38:20.288Z,40.65
2022-08-07T09:39:54.076Z,41.07
2022-08-07T09:40:23.900Z,40.54
2022-08-07T09:41:27.810Z,40.97
2022-08-07T09:42:32.992Z,40.97
2022-08-07T09:44:03.527Z,40.99
2022-08-07T09:44:58.325Z,41.57
2022-08-07T09:47:25.246Z,40.54
2022-08-07T09:47:50.042Z,39.92
2022-08-07T09:47:59.290Z,39.93
2022-08-07T09:48:56.020Z,39.69
2022-08-07T09:50:03.955Z,39.28
2022-08-07T09:50:41.105Z,39.24
2022-08-07T09:52:15.720Z,40.1
2022-08-07T09:52:44.711Z,40.04
2022-08-07T09:53:55.069Z,39.43
2022-08-07T09:54:48.041Z,39.2
2022-08-07T09:56:04.659Z,39.35
2022-08-07T09:56:51.576Z,39.1
2022-08-07T09:57:53.318Z,39.48
2022-08-07T09:58:55.113Z,39.42
2022-08-07T10:00:01.452Z,39.19
2022-08-07T10:00:58.626Z,39.42
2022-08-07T10:02:00.501Z,39.28
2022-08-07T10:03:08.092Z,39.4
2022-08-07T10:04:14.177Z,39.58
2022-08-07T10:05:12.204Z,39.93
2022-08-07T10:06:12.508Z,38.89
2022-08-07T10:07:24.073Z,39.02
2022-08-07T10:08:10.672Z,39.31
2022-08-07T10:09:13.330Z,38.45
2022-08-07T10:10:21.633Z,38.91
2022-08-07T10:11:59.705Z,38.47
2022-08-07T10:12:21.733Z,39.01
2022-08-07T10:13:54.783Z,38.21
2022-08-07T10:14:30.440Z,38.71
2022-08-07T10:15:22.964Z,39.37
2022-08-07T10:16:24.541Z,38.53
2022-08-07T10:17:28.129Z,37.67
2022-08-07T10:18:27.998Z,37.63
2022-08-07T10:19:30.164Z,37.54
2022-08-07T10:20:31.992Z,38.02
2022-08-07T10:22:12.664Z,38.43
2022-08-07T10:22:36.806Z,37.91
2022-08-07T10:24:06.304Z,37.33
2022-08-07T10:24:39.835Z,37.55
2022-08-07T10:25:43.170Z,37.29
2022-08-07T10:26:41.814Z,37.42
2022-08-07T10:27:46.598Z,37.4
2022-08-07T10:28:49.734Z,37.42
2022-08-07T10:29:51.706Z,38.01
2022-08-07T10:30:48.752Z,37.75
2022-08-07T10:31:50.776Z,37.29
2022-08-07T10:32:54.048Z,37.2
2022-08-07T10:34:05.833Z,37.35
2022-08-07T10:34:55.858Z,36.57
2022-08-07T10:36:05.441Z,36.58
2022-08-07T10:36:59.217Z,36.5
2022-08-07T10:38:20.946Z,36.14
2022-08-07T10:39:04.397Z,36.54
2022-08-07T10:40:05.871Z,35.73
2022-08-07T10:41:09.245Z,35.58
2022-08-07T10:42:09.246Z,36.28
2022-08-07T10:43:09.565Z,37.3
2022-08-07T10:44:11.435Z,37.46
2022-08-07T10:45:13.023Z,37.43
2022-08-07T10:46:14.765Z,35.7
2022-08-07T10:47:16.575Z,35.8
2022-08-07T10:48:18.240Z,35.34
2022-08-07T10:49:24.527Z,36.32
2022-08-07T10:50:25.960Z,35.88
2022-08-07T10:51:39.681Z,35.35
2022-08-07T10:52:31.794Z,35.04
2022-08-07T10:53:26.968Z,35.5
2022-08-07T10:54:28.648Z,35.67
2022-08-07T10:55:38.627Z,35.67
2022-08-07T10:56:32.115Z,34.31
2022-08-07T10:57:36.943Z,35.17
2022-08-07T10:58:36.736Z,35.28
2022-08-07T10:59:37.815Z,35.39
2022-08-07T11:00:50.191Z,35.26
2022-08-07T11:01:51.439Z,35.18
2022-08-07T11:02:49.175Z,35.28
2022-08-07T11:03:52.680Z,35.14
2022-08-07T11:04:46.337Z,36.06
2022-08-07T11:05:50.656Z,35.45
2022-08-07T11:06:49.586Z,35.88
2022-08-07T11:07:59.423Z,35.26
2022-08-07T11:08:53.000Z,35.13
2022-08-07T11:10:09.432Z,35.45
2022-08-07T11:10:59.791Z,34.48
2022-08-07T11:11:59.194Z,32.45
2022-08-07T11:13:01.951Z,32.39
2022-08-07T11:14:57.057Z,32.64
2022-08-07T11:15:03.627Z,33.32
2022-08-07T11:16:08.242Z,32.93
2022-08-07T11:17:09.135Z,31.86
2022-08-07T11:18:09.619Z,32.44
2022-08-07T11:19:10.338Z,32.47
2022-08-07T11:20:12.011Z,33.57
2022-08-07T11:21:14.084Z,33.32
2022-08-07T11:22:26.630Z,31.72
2022-08-07T11:23:20.604Z,31.51
2022-08-07T11:24:18.955Z,31.71
2022-08-07T11:25:20.984Z,31.94
2022-08-07T11:26:23.218Z,33.04
2022-08-07T11:28:00.861Z,32.5
2022-08-07T11:28:25.899Z,32.63
2022-08-07T11:29:42.743Z,32.07
2022-08-07T11:30:41.544Z,33.15
2022-08-07T11:31:35.073Z,34.06
2022-08-07T11:32:32.841Z,33.12
2022-08-07T11:33:59.567Z,33.37
2022-08-07T11:34:36.295Z,33.49
2022-08-07T11:36:00.210Z,33.35
2022-08-07T11:36:39.745Z,33.28
2022-08-07T11:37:58.364Z,33.73
2022-08-07T11:38:43.237Z,32.92
2022-08-07T11:40:00.005Z,33.84
2022-08-07T11:40:49.777Z,33.83
2022-08-07T11:42:02.381Z,32.58
2022-08-07T11:42:50.438Z,32.89
2022-08-07T11:44:11.152Z,33.42
2022-08-07T11:44:57.576Z,33.56
2022-08-07T11:45:55.514Z,33
2022-08-07T11:46:57.310Z,33.27
2022-08-07T11:48:02.663Z,33.36
2022-08-07T11:49:50.316Z,33.49
2022-08-07T11:50:30.503Z,33.36
2022-08-07T11:51:09.735Z,32.32
2022-08-07T11:52:05.963Z,33.4
2022-08-07T11:53:07.552Z,32.59
2022-08-07T11:54:10.371Z,32.47
2022-08-07T11:55:18.637Z,32.31
2022-08-07T11:56:26.885Z,32
2022-08-07T11:57:14.605Z,33.19
2022-08-07T11:58:16.676Z,32.56
2022-08-07T12:00:10.290Z,32.49
2022-08-07T12:00:21.212Z,32.23
2022-08-07T12:01:22.054Z,32.43
2022-08-07T12:02:30.554Z,32.13
2022-08-07T12:03:44.480Z,32.05
2022-08-07T12:04:26.921Z,32.09
2022-08-07T12:05:47.490Z,31.83
2022-08-07T12:06:38.941Z,30.69
2022-08-07T12:07:38.904Z,31.47
2022-08-07T12:08:35.021Z,32.08
2022-08-07T12:09:35.314Z,32
2022-08-07T12:10:37.150Z,32.51
2022-08-07T12:11:43.215Z,33.26
2022-08-07T12:12:40.463Z,31.56
2022-08-07T12:13:45.088Z,32.54
2022-08-07T12:14:43.956Z,32.02
2022-08-07T12:16:05.215Z,32.24
2022-08-07T12:16:47.398Z,31.53
2022-08-07T12:17:58.801Z,31.63
2022-08-07T12:18:50.888Z,31.49
2022-08-07T12:20:02.717Z,31.65
2022-08-07T12:20:54.475Z,32.4
2022-08-07T12:22:37.700Z,31.93
2022-08-07T12:22:58.579Z,32.31
2022-08-07T12:24:05.450Z,32.12
2022-08-07T12:25:02.534Z,32.44
2022-08-07T12:26:28.651Z,31.05
2022-08-07T12:27:04.822Z,31.23
2022-08-07T12:28:09.424Z,31.83
2022-08-07T12:29:08.232Z,32.55
2022-08-07T12:30:09.965Z,31.1
2022-08-07T12:31:11.705Z,31.58
2022-08-07T12:32:13.670Z,30.98
2022-08-07T12:33:23.142Z,30.67
2022-08-07T12:34:16.913Z,30.9
2022-08-07T12:35:19.225Z,31.01
2022-08-07T12:36:20.355Z,30.43
2022-08-07T12:37:23.340Z,31.45
2022-08-07T12:38:36.728Z,32.02
2022-08-07T12:39:42.474Z,31.77
2022-08-07T12:40:48.330Z,31.96
2022-08-07T12:41:49.168Z,32.33
2022-08-07T12:42:31.945Z,31.78
2022-08-07T12:44:04.281Z,31.45
2022-08-07T12:44:34.428Z,31.45
2022-08-07T12:45:36.106Z,31.38
2022-08-07T12:46:37.715Z,31.61
2022-08-07T12:47:39.820Z,30.99
2022-08-07T12:48:52.916Z,31.38
2022-08-07T12:49:50.935Z,31.67
2022-08-07T12:50:49.275Z,30.77
2022-08-07T12:52:12.371Z,31.5
2022-08-07T12:52:48.121Z,31.28
2022-08-07T12:54:02.893Z,31.14
2022-08-07T12:54:54.711Z,30.86
2022-08-07T12:56:03.274Z,31.02
2022-08-07T12:56:55.336Z,31.41
2022-08-07T12:58:01.099Z,31.43
2022-08-07T12:58:59.713Z,31.21
2022-08-07T13:00:00.394Z,31.52
2022-08-07T13:01:02.383Z,30.89
2022-08-07T13:02:03.748Z,31.8
2022-08-07T13:03:06.948Z,31.77
2022-08-07T13:04:09.777Z,32.17
2022-08-07T13:06:04.012Z,30.57
2022-08-07T13:06:17.030Z,30.23
2022-08-07T13:08:12.581Z,30.59
2022-08-07T13:08:19.555Z,29.94
2022-08-07T13:10:19.441Z,30.91
2022-08-07T13:10:39.268Z,29.85
2022-08-07T13:11:24.597Z,30.22
2022-08-07T13:12:26.289Z,30.63
2022-08-07T13:13:47.007Z,30.08
2022-08-07T13:14:29.685Z,29.76
2022-08-07T13:15:32.062Z,29.7
2022-08-07T13:16:33.203Z,29.62
2022-08-07T13:17:40.038Z,30.12
2022-08-07T13:18:36.611Z,30.25